Página principal
METAR-TAF:

METAR-TAF

Aeroportos :

Vereeniging, África do Sul

latitude: 26-34-29S, longitude: 027-57-45E, altura: 1483 m

Observação actual do tempo

O boletim foi feito há 55 minutos, às 21:00 UTC
Vento 5 kt de oes-noroeste
Temperatura 22°C
Humidade 50%
Pressão 1018 hPa

METAR: FAVV 082100Z AUTO 30005KT //// // ////// 22/11 Q1018

Hora: 23:55 (21:55 UTC)


TAF: em falta

Observações e previsões do tempo de mais de 4000 aeroportos (mensagens METAR e TAF).

As estações disponíveis são os pontos amarelos e vermelhos sobre o mapa.

Mova o rato sobre o mapa para ver o nome da estação.

Depois clique no ponto para visualizar as observações e previsões meteorológicas.

Para alterar o mapa : clique nos botões verdes com uma cruz preta para aumentar o zoom; no botão verde com uma pitada de zoom; ou nas setas verdes para mapas adjacentes.


METAR-TAF: